createdAt,value
2022-09-10T00:01:33.993Z,100115.97
2022-09-10T00:04:20.700Z,100123.84
2022-09-10T00:07:07.277Z,100128.25
2022-09-10T00:09:54.004Z,100121.41
2022-09-10T00:12:42.323Z,100132.00
2022-09-10T00:15:29.229Z,100127.91
2022-09-10T00:18:17.600Z,100128.94
2022-09-10T00:20:49.467Z,100131.66
2022-09-10T00:23:18.974Z,100132.09
2022-09-10T00:25:46.735Z,100126.84
2022-09-10T00:28:13.747Z,100127.97
2022-09-10T00:30:42.204Z,100131.72
2022-09-10T00:33:10.359Z,100115.88
2022-09-10T00:35:38.115Z,100119.31
2022-09-10T00:38:05.208Z,100119.31
2022-09-10T00:40:32.356Z,100128.81
2022-09-10T00:42:59.666Z,100128.03
2022-09-10T00:45:32.639Z,100144.09
2022-09-10T00:48:22.915Z,100137.06
2022-09-10T00:50:51.973Z,100149.72
2022-09-10T00:53:23.040Z,100138.28
2022-09-10T00:55:54.018Z,100126.56
2022-09-10T00:58:23.744Z,100136.50
2022-09-10T01:00:54.626Z,100133.50
2022-09-10T01:03:44.559Z,100142.78
2022-09-10T01:06:31.579Z,100129.56
2022-09-10T01:09:20.382Z,100132.44
2022-09-10T01:12:14.487Z,100130.66
2022-09-10T01:15:20.080Z,100134.63
2022-09-10T01:18:18.656Z,100136.66
2022-09-10T01:21:15.047Z,100132.75
2022-09-10T01:23:58.224Z,100140.72
2022-09-10T01:26:50.724Z,100128.16
2022-09-10T01:29:29.250Z,100130.69
2022-09-10T01:32:15.562Z,100148.69
2022-09-10T01:35:07.095Z,100130.31
2022-09-10T01:37:37.728Z,100129.66
2022-09-10T01:40:06.903Z,100136.50
2022-09-10T01:42:37.960Z,100143.38
2022-09-10T01:45:06.509Z,100136.16
2022-09-10T01:48:08.172Z,100129.75
2022-09-10T01:51:00.211Z,100146.44
2022-09-10T01:53:57.313Z,100141.84
2022-09-10T01:56:43.268Z,100148.88
2022-09-10T01:59:29.032Z,100141.09
2022-09-10T02:02:08.984Z,100135.84
2022-09-10T02:04:37.146Z,100163.16
2022-09-10T02:07:07.101Z,100139.69
2022-09-10T02:09:33.835Z,100137.91
2022-09-10T02:12:02.188Z,100128.03
2022-09-10T02:15:08.622Z,100133.59
2022-09-10T02:17:53.524Z,100141.47
2022-09-10T02:20:21.977Z,100134.16
2022-09-10T02:22:56.793Z,100122.06
2022-09-10T02:25:28.403Z,100127.50
2022-09-10T02:27:57.174Z,100122.16
2022-09-10T02:30:24.701Z,100126.75
2022-09-10T02:32:51.898Z,100126.94
2022-09-10T02:35:19.364Z,100138.00
2022-09-10T02:37:46.989Z,100131.81
2022-09-10T02:40:14.803Z,100123.94
2022-09-10T02:42:46.696Z,100124.47
2022-09-10T02:45:17.261Z,100115.22
2022-09-10T02:47:44.029Z,100115.03
2022-09-10T02:50:11.584Z,100113.25
2022-09-10T02:52:38.612Z,100114.19
2022-09-10T02:55:06.618Z,100110.72
2022-09-10T02:57:33.493Z,100098.97
2022-09-10T03:00:00.028Z,100107.78
2022-09-10T03:02:27.267Z,100104.97
2022-09-10T03:04:54.765Z,100111.25
2022-09-10T03:07:21.491Z,100113.03
2022-09-10T03:09:48.028Z,100108.72
2022-09-10T03:12:16.147Z,100108.72
2022-09-10T03:14:43.804Z,100108.63
2022-09-10T03:17:11.022Z,100107.78
2022-09-10T03:19:37.680Z,100102.19
2022-09-10T03:22:04.818Z,100115.56
2022-09-10T03:24:32.850Z,100107.69
2022-09-10T03:26:59.664Z,100112.59
2022-09-10T03:29:26.266Z,100111.75
2022-09-10T03:31:53.205Z,100106.59
2022-09-10T03:34:21.045Z,100112.09
2022-09-10T03:36:48.033Z,100111.00
2022-09-10T03:39:16.068Z,100115.97
2022-09-10T03:41:42.896Z,100113.81
2022-09-10T03:44:10.141Z,100113.88
2022-09-10T03:46:41.212Z,100120.28
2022-09-10T03:49:08.084Z,100125.06
2022-09-10T03:51:35.369Z,100121.69
2022-09-10T03:54:02.615Z,100120.00
2022-09-10T03:56:32.185Z,100119.53
2022-09-10T03:58:58.547Z,100118.59
2022-09-10T04:01:27.665Z,100115.66
2022-09-10T04:03:56.376Z,100116.69
2022-09-10T04:06:25.531Z,100125.25
2022-09-10T04:08:52.740Z,100118.38
2022-09-10T04:11:24.384Z,100120.16
2022-09-10T04:13:51.587Z,100119.44
2022-09-10T04:16:18.385Z,100124.78
2022-09-10T04:18:45.299Z,100127.59
2022-09-10T04:21:14.350Z,100123.34
2022-09-10T04:23:41.187Z,100128.69
2022-09-10T04:26:17.648Z,100117.34
2022-09-10T04:28:47.001Z,100124.66
2022-09-10T04:31:14.816Z,100125.41
2022-09-10T04:33:41.319Z,100133.38
2022-09-10T04:36:08.505Z,100130.41
2022-09-10T04:38:41.441Z,100130.06
2022-09-10T04:41:09.693Z,100123.03
2022-09-10T04:43:37.652Z,100125.13
2022-09-10T04:46:05.667Z,100129.44
2022-09-10T04:48:34.547Z,100121.91
2022-09-10T04:51:17.576Z,100126.16
2022-09-10T04:53:47.444Z,100127.75
2022-09-10T04:56:14.384Z,100132.78
2022-09-10T04:58:41.668Z,100132.53
2022-09-10T05:01:09.177Z,100144.53
2022-09-10T05:03:35.722Z,100144.97
2022-09-10T05:06:03.839Z,100149.41
2022-09-10T05:08:31.122Z,100146.13
2022-09-10T05:11:00.564Z,100147.63
2022-09-10T05:13:28.458Z,100143.97
2022-09-10T05:15:54.831Z,100146.22
2022-09-10T05:18:22.271Z,100147.81
2022-09-10T05:20:48.648Z,100145.47
2022-09-10T05:23:15.305Z,100148.94
2022-09-10T05:25:43.830Z,100149.94
2022-09-10T05:28:11.441Z,100152.47
2022-09-10T05:30:37.957Z,100147.16
2022-09-10T05:33:04.412Z,100145.66
2022-09-10T05:35:33.434Z,100150.25
2022-09-10T05:38:02.941Z,100146.84
2022-09-10T05:40:35.782Z,100150.63
2022-09-10T05:43:02.896Z,100157.56
2022-09-10T05:45:29.981Z,100155.56
2022-09-10T05:47:57.889Z,100153.72
2022-09-10T05:50:24.417Z,100150.31
2022-09-10T05:52:52.906Z,100153.72
2022-09-10T05:55:19.402Z,100149.41
2022-09-10T05:57:47.150Z,100152.00
2022-09-10T06:00:16.623Z,100147.53
2022-09-10T06:02:53.076Z,100151.84
2022-09-10T06:05:28.123Z,100149.31
2022-09-10T06:07:55.828Z,100155.41
2022-09-10T06:10:22.763Z,100155.97
2022-09-10T06:12:53.898Z,100162.25
2022-09-10T06:15:22.412Z,100151.84
2022-09-10T06:17:56.195Z,100153.44
2022-09-10T06:20:23.569Z,100151.56
2022-09-10T06:22:52.167Z,100165.72
2022-09-10T06:25:19.151Z,100171.91
2022-09-10T06:27:46.586Z,100168.44
2022-09-10T06:30:14.715Z,100169.97
2022-09-10T06:32:45.051Z,100167.34
2022-09-10T06:35:11.921Z,100181.50
2022-09-10T06:37:38.440Z,100175.56
2022-09-10T06:40:08.761Z,100180.63
2022-09-10T06:42:35.460Z,100177.84
2022-09-10T06:45:08.355Z,100177.00
2022-09-10T06:50:53.239Z,100183.84
2022-09-10T06:53:23.215Z,100179.94
2022-09-10T06:55:50.919Z,100190.25
2022-09-10T06:58:25.865Z,100179.66
2022-09-10T07:00:52.860Z,100187.63
2022-09-10T07:03:21.926Z,100194.69
2022-09-10T07:05:50.019Z,100189.44
2022-09-10T07:08:17.349Z,100190.91
2022-09-10T07:10:45.716Z,100187.09
2022-09-10T07:13:14.492Z,100189.72
2022-09-10T07:15:46.448Z,100190.38
2022-09-10T07:18:14.558Z,100191.97
2022-09-10T07:20:43.338Z,100190.56
2022-09-10T07:23:12.840Z,100200.72
2022-09-10T07:25:41.566Z,100203.25
2022-09-10T07:28:18.230Z,100201.56
2022-09-10T07:30:47.403Z,100201.16
2022-09-10T07:33:15.208Z,100206.41
2022-09-10T07:35:44.026Z,100207.00
2022-09-10T07:38:17.184Z,100213.00
2022-09-10T07:40:45.999Z,100212.06
2022-09-10T07:43:12.889Z,100223.72
2022-09-10T07:45:40.418Z,100225.31
2022-09-10T07:48:08.255Z,100226.25
2022-09-10T07:50:38.467Z,100229.81
2022-09-10T07:53:06.296Z,100229.63
2022-09-10T07:55:33.865Z,100234.03
2022-09-10T07:58:00.922Z,100236.84
2022-09-10T08:00:29.993Z,100235.66
2022-09-10T08:03:00.631Z,100237.06
2022-09-10T08:05:28.724Z,100235.56
2022-09-10T08:07:55.376Z,100233.97
2022-09-10T08:10:24.555Z,100245.53
2022-09-10T08:12:52.596Z,100237.53
2022-09-10T08:15:19.868Z,100240.66
2022-09-10T08:17:46.828Z,100240.47
2022-09-10T08:20:14.350Z,100247.13
2022-09-10T08:22:43.603Z,100248.00
2022-09-10T08:25:10.669Z,100250.44
2022-09-10T08:27:37.341Z,100239.72
2022-09-10T08:30:06.364Z,100248.91
2022-09-10T08:32:35.045Z,100256.06
2022-09-10T08:35:05.005Z,100252.22
2022-09-10T08:37:33.481Z,100247.47
2022-09-10T08:40:01.657Z,100258.34
2022-09-10T08:42:45.430Z,100259.94
2022-09-10T08:45:26.045Z,100253.84
2022-09-10T08:48:13.324Z,100256.56
2022-09-10T08:50:56.983Z,100248.00
2022-09-10T08:53:57.186Z,100255.97
2022-09-10T08:56:24.458Z,100257.16
2022-09-10T08:59:17.087Z,100263.56
2022-09-10T09:02:31.600Z,100258.38
2022-09-10T09:05:12.776Z,100258.16
2022-09-10T09:07:40.152Z,100264.25
2022-09-10T09:10:25.325Z,100260.81
2022-09-10T09:13:07.763Z,100268.22
2022-09-10T09:16:03.893Z,100258.53
2022-09-10T09:18:57.008Z,100264.00
2022-09-10T09:21:32.514Z,100272.66
2022-09-10T09:24:13.061Z,100268.31
2022-09-10T09:26:47.513Z,100268.91
2022-09-10T09:29:31.228Z,100273.22
2022-09-10T09:32:04.548Z,100267.97
2022-09-10T09:34:39.272Z,100268.88
2022-09-10T09:37:16.914Z,100267.44
2022-09-10T09:40:06.538Z,100265.75
2022-09-10T09:42:40.475Z,100272.78
2022-09-10T09:45:18.098Z,100266.66
2022-09-10T09:47:51.096Z,100267.50
2022-09-10T09:50:20.893Z,100259.91
2022-09-10T09:52:54.223Z,100256.81
2022-09-10T09:55:40.041Z,100257.22
2022-09-10T09:58:21.848Z,100248.78
2022-09-10T10:00:52.321Z,100249.53
2022-09-10T10:03:28.168Z,100247.28
2022-09-10T10:06:02.227Z,100245.53
2022-09-10T10:08:33.681Z,100249.44
2022-09-10T10:11:00.496Z,100247.72
2022-09-10T10:13:37.830Z,100240.13
2022-09-10T10:16:21.659Z,100243.94
2022-09-10T10:18:49.118Z,100243.72
2022-09-10T10:21:36.943Z,100233.88
2022-09-10T10:24:03.976Z,100236.56
2022-09-10T10:26:32.255Z,100234.13
2022-09-10T10:29:28.607Z,100232.75
2022-09-10T10:31:56.435Z,100227.47
2022-09-10T10:34:44.035Z,100236.53
2022-09-10T10:37:29.699Z,100228.81
2022-09-10T10:40:19.611Z,100230.63
2022-09-10T10:42:55.590Z,100227.13
2022-09-10T10:46:11.771Z,100233.56
2022-09-10T10:48:51.161Z,100235.56
2022-09-10T10:51:36.344Z,100235.88
2022-09-10T10:54:32.814Z,100223.66
2022-09-10T10:57:02.489Z,100225.22
2022-09-10T10:59:54.623Z,100230.06
2022-09-10T11:02:36.119Z,100221.09
2022-09-10T11:05:18.584Z,100227.13
2022-09-10T11:07:47.461Z,100236.47
2022-09-10T11:10:37.574Z,100229.75
2022-09-10T11:13:31.679Z,100231.19
2022-09-10T11:16:05.722Z,100230.47
2022-09-10T11:18:39.294Z,100230.47
2022-09-10T11:21:41.765Z,100226.91
2022-09-10T11:24:20.708Z,100225.28
2022-09-10T11:26:54.003Z,100227.22
2022-09-10T11:29:48.747Z,100231.34
2022-09-10T11:32:28.711Z,100223.00
2022-09-10T11:35:10.858Z,100233.00
2022-09-10T11:37:40.170Z,100220.75
2022-09-10T11:40:18.667Z,100234.38
2022-09-10T11:42:52.501Z,100221.41
2022-09-10T11:45:42.838Z,100215.94
2022-09-10T11:48:18.925Z,100219.41
2022-09-10T11:50:54.036Z,100216.38
2022-09-10T11:53:23.307Z,100216.47
2022-09-10T11:56:12.200Z,100220.72
2022-09-10T11:58:56.161Z,100224.72
2022-09-10T12:01:50.735Z,100218.91
2022-09-10T12:04:42.712Z,100218.91
2022-09-10T12:07:21.881Z,100224.31
2022-09-10T12:10:09.976Z,100215.56
2022-09-10T12:12:51.119Z,100210.16
2022-09-10T12:15:24.581Z,100207.66
2022-09-10T12:18:12.509Z,100207.66
2022-09-10T12:20:53.474Z,100214.09
2022-09-10T12:23:34.118Z,100215.44
2022-09-10T12:26:19.558Z,100214.09
2022-09-10T12:28:49.823Z,100217.34
2022-09-10T12:31:19.870Z,100216.72
2022-09-10T12:33:46.519Z,100213.13
2022-09-10T12:36:28.231Z,100210.41
2022-09-10T12:39:20.635Z,100217.13
2022-09-10T12:41:46.967Z,100217.03
2022-09-10T12:44:36.361Z,100203.44
2022-09-10T12:47:11.893Z,100215.66
2022-09-10T12:49:49.562Z,100208.59
2022-09-10T12:52:34.748Z,100212.41
2022-09-10T12:55:33.742Z,100207.19
2022-09-10T12:58:24.692Z,100211.50
2022-09-10T13:00:54.305Z,100221.00
2022-09-10T13:03:24.949Z,100214.34
2022-09-10T13:05:54.020Z,100205.38
2022-09-10T13:08:34.324Z,100204.75
2022-09-10T13:11:03.247Z,100202.56
2022-09-10T13:13:53.111Z,100198.97
2022-09-10T13:16:38.162Z,100193.84
2022-09-10T13:19:13.813Z,100194.00
2022-09-10T13:21:40.407Z,100200.13
2022-09-10T13:24:36.536Z,100197.25
2022-09-10T13:27:16.909Z,100201.34
2022-09-10T13:29:52.573Z,100197.63
2022-09-10T13:32:59.583Z,100188.53
2022-09-10T13:35:32.295Z,100192.09
2022-09-10T13:38:28.651Z,100186.94
2022-09-10T13:41:31.676Z,100179.31
2022-09-10T13:44:36.290Z,100178.59
2022-09-10T13:47:47.232Z,100187.47
2022-09-10T13:50:18.617Z,100180.91
2022-09-10T13:52:48.411Z,100182.22
2022-09-10T13:55:21.590Z,100177.50
2022-09-10T13:57:51.723Z,100169.97
2022-09-10T14:00:41.476Z,100166.69
2022-09-10T14:03:16.663Z,100170.31
2022-09-10T14:05:50.377Z,100171.03
2022-09-10T14:08:35.673Z,100162.34
2022-09-10T14:11:13.159Z,100164.16
2022-09-10T14:13:44.452Z,100161.03
2022-09-10T14:16:16.617Z,100161.88
2022-09-10T14:18:51.558Z,100171.69
2022-09-10T14:21:19.780Z,100166.63
2022-09-10T14:23:48.652Z,100165.34
2022-09-10T14:26:24.650Z,100164.72
2022-09-10T14:28:54.231Z,100156.81
2022-09-10T14:31:25.780Z,100157.31
2022-09-10T14:33:54.122Z,100169.69
2022-09-10T14:36:27.539Z,100169.31
2022-09-10T14:39:17.676Z,100172.88
2022-09-10T14:41:45.073Z,100174.41
2022-09-10T14:44:23.880Z,100169.94
2022-09-10T14:46:54.087Z,100190.03
2022-09-10T14:49:33.682Z,100178.56
2022-09-10T14:52:01.831Z,100171.19
2022-09-10T14:54:30.566Z,100173.97
2022-09-10T14:57:06.607Z,100171.41
2022-09-10T14:59:35.392Z,100168.03
2022-09-10T15:02:06.079Z,100171.00
2022-09-10T15:04:33.015Z,100163.22
2022-09-10T15:07:00.534Z,100162.69
2022-09-10T15:09:29.004Z,100183.03
2022-09-10T15:12:14.872Z,100172.47
2022-09-10T15:14:41.959Z,100164.91
2022-09-10T15:17:13.310Z,100158.66
2022-09-10T15:19:39.877Z,100162.63
2022-09-10T15:22:06.615Z,100157.16
2022-09-10T15:24:42.766Z,100155.03
2022-09-10T15:27:19.736Z,100154.19
2022-09-10T15:29:46.287Z,100152.63
2022-09-10T15:32:13.529Z,100157.69
2022-09-10T15:34:41.219Z,100153.63
2022-09-10T15:37:08.140Z,100163.53
2022-09-10T15:39:38.320Z,100163.38
2022-09-10T15:42:05.318Z,100154.72
2022-09-10T15:44:33.211Z,100159.44
2022-09-10T15:47:01.023Z,100169.34
2022-09-10T15:49:28.566Z,100162.59
2022-09-10T15:51:55.892Z,100160.00
2022-09-10T15:54:22.633Z,100161.41
2022-09-10T15:56:49.333Z,100168.84
2022-09-10T15:59:16.473Z,100158.41
2022-09-10T16:01:43.335Z,100160.69
2022-09-10T16:04:09.934Z,100159.19
2022-09-10T16:06:39.260Z,100155.84
2022-09-10T16:09:09.554Z,100154.78
2022-09-10T16:11:36.997Z,100149.91
2022-09-10T16:14:07.163Z,100156.31
2022-09-10T16:16:35.304Z,100155.81
2022-09-10T16:19:05.818Z,100154.84
2022-09-10T16:21:36.398Z,100165.19
2022-09-10T16:24:04.656Z,100154.19
2022-09-10T16:26:37.529Z,100167.81
2022-09-10T16:29:06.814Z,100180.97
2022-09-10T16:31:39.378Z,100176.34
2022-09-10T16:34:08.654Z,100178.25
2022-09-10T16:36:37.219Z,100182.94
2022-09-10T16:39:11.656Z,100190.50
2022-09-10T16:41:40.123Z,100196.13
2022-09-10T16:44:06.880Z,100189.31
2022-09-10T16:46:35.068Z,100191.13
2022-09-10T16:49:02.221Z,100199.31
2022-09-10T16:51:28.840Z,100209.22
2022-09-10T16:54:02.731Z,100206.56
2022-09-10T16:56:34.259Z,100211.69
2022-09-10T16:59:00.987Z,100208.81
2022-09-10T17:01:28.053Z,100207.97
2022-09-10T17:03:54.653Z,100218.66
2022-09-10T17:06:26.948Z,100211.78
2022-09-10T17:08:56.059Z,100219.50
2022-09-10T17:11:23.409Z,100219.59
2022-09-10T17:13:50.747Z,100222.34
2022-09-10T17:16:32.774Z,100220.03
2022-09-10T17:19:05.417Z,100225.91
2022-09-10T17:21:34.166Z,100226.56
2022-09-10T17:24:02.173Z,100215.28
2022-09-10T17:26:29.737Z,100217.75
2022-09-10T17:29:01.987Z,100216.50
2022-09-10T17:31:29.815Z,100216.19
2022-09-10T17:33:57.382Z,100211.16
2022-09-10T17:36:25.239Z,100217.50
2022-09-10T17:38:56.680Z,100222.16
2022-09-10T17:41:24.272Z,100229.97
2022-09-10T17:43:51.117Z,100223.97
2022-09-10T17:46:20.682Z,100221.69
2022-09-10T17:48:48.207Z,100217.75
2022-09-10T17:51:17.508Z,100220.84
2022-09-10T17:53:44.479Z,100226.97
2022-09-10T17:56:14.013Z,100223.44
2022-09-10T17:58:42.317Z,100234.34
2022-09-10T18:01:13.854Z,100237.38
2022-09-10T18:03:40.845Z,100239.16
2022-09-10T18:06:10.297Z,100246.91
2022-09-10T18:08:39.204Z,100254.19
2022-09-10T18:11:07.473Z,100259.13
2022-09-10T18:13:35.458Z,100255.22
2022-09-10T18:16:09.763Z,100261.97
2022-09-10T18:18:37.656Z,100266.50
2022-09-10T18:21:15.717Z,100267.06
2022-09-10T18:23:49.473Z,100265.06
2022-09-10T18:26:19.147Z,100253.88
2022-09-10T18:29:02.943Z,100261.66
2022-09-10T18:31:33.602Z,100264.50
2022-09-10T18:34:03.228Z,100254.16
2022-09-10T18:36:31.354Z,100260.94
2022-09-10T18:39:02.524Z,100268.59
2022-09-10T18:41:32.396Z,100261.84
2022-09-10T18:44:01.999Z,100275.31
2022-09-10T18:46:29.134Z,100267.97
2022-09-10T18:48:57.275Z,100271.00
2022-09-10T18:51:26.205Z,100271.63
2022-09-10T18:53:54.931Z,100282.78
2022-09-10T18:56:23.979Z,100282.91
2022-09-10T18:58:52.545Z,100284.91
2022-09-10T19:01:20.291Z,100283.53
2022-09-10T19:03:48.543Z,100282.47
2022-09-10T19:06:20.869Z,100281.41
2022-09-10T19:09:04.500Z,100285.50
2022-09-10T19:11:33.811Z,100277.69
2022-09-10T19:14:02.256Z,100278.44
2022-09-10T19:16:31.615Z,100278.53
2022-09-10T19:19:03.083Z,100284.31
2022-09-10T19:21:32.354Z,100284.84
2022-09-10T19:24:00.549Z,100295.97
2022-09-10T19:26:30.487Z,100294.56
2022-09-10T19:28:58.055Z,100297.31
2022-09-10T19:31:26.493Z,100306.44
2022-09-10T19:33:58.516Z,100306.25
2022-09-10T19:36:27.890Z,100311.06
2022-09-10T19:38:54.846Z,100309.25
2022-09-10T19:41:21.625Z,100308.59
2022-09-10T19:43:51.607Z,100306.84
2022-09-10T19:46:19.977Z,100315.59
2022-09-10T19:48:47.977Z,100318.34
2022-09-10T19:51:19.030Z,100303.06
2022-09-10T19:53:46.729Z,100310.09
2022-09-10T19:56:20.334Z,100307.88
2022-09-10T19:58:52.228Z,100296.59
2022-09-10T20:01:22.033Z,100298.22
2022-09-10T20:03:49.857Z,100306.03
2022-09-10T20:06:19.410Z,100302.06
2022-09-10T20:08:50.866Z,100305.63
2022-09-10T20:11:29.937Z,100301.03
2022-09-10T20:13:59.808Z,100297.69
2022-09-10T20:16:26.765Z,100294.22
2022-09-10T20:18:53.968Z,100301.16
2022-09-10T20:21:24.114Z,100294.31
2022-09-10T20:23:52.855Z,100288.84
2022-09-10T20:26:23.485Z,100289.13
2022-09-10T20:28:58.987Z,100288.84
2022-09-10T20:31:27.887Z,100292.59
2022-09-10T20:33:59.580Z,100300.03
2022-09-10T20:36:28.348Z,100297.69
2022-09-10T20:38:55.910Z,100291.47
2022-09-10T20:41:23.301Z,100290.91
2022-09-10T20:43:53.556Z,100298.09
2022-09-10T20:46:22.749Z,100302.69
2022-09-10T20:48:50.723Z,100307.97
2022-09-10T20:51:19.038Z,100309.84
2022-09-10T20:53:46.547Z,100302.50
2022-09-10T20:56:19.256Z,100313.22
2022-09-10T20:58:46.803Z,100314.91
2022-09-10T21:01:19.819Z,100317.75
2022-09-10T21:03:48.224Z,100319.72
2022-09-10T21:06:20.406Z,100324.03
2022-09-10T21:08:47.700Z,100324.22
2022-09-10T21:11:17.454Z,100332.09
2022-09-10T21:14:05.419Z,100331.66
2022-09-10T21:16:34.577Z,100325.81
2022-09-10T21:19:04.130Z,100326.28
2022-09-10T21:21:34.105Z,100317.44
2022-09-10T21:24:03.127Z,100324.31
2022-09-10T21:26:32.377Z,100338.59
2022-09-10T21:29:02.188Z,100319.88
2022-09-10T21:31:29.771Z,100321.59
2022-09-10T21:34:02.404Z,100314.53
2022-09-10T21:36:29.972Z,100317.72
2022-09-10T21:38:59.613Z,100330.88
2022-09-10T21:41:31.898Z,100320.34
2022-09-10T21:44:00.317Z,100313.41
2022-09-10T21:46:27.972Z,100328.66
2022-09-10T21:48:55.083Z,100309.28
2022-09-10T21:51:22.627Z,100320.56
2022-09-10T21:53:53.211Z,100319.06
2022-09-10T21:56:19.875Z,100322.63
2022-09-10T21:58:46.783Z,100313.53
2022-09-10T22:01:19.268Z,100327.41
2022-09-10T22:03:47.158Z,100324.03
2022-09-10T22:06:19.443Z,100315.84
2022-09-10T22:08:48.304Z,100322.06
2022-09-10T22:11:23.244Z,100326.84
2022-09-10T22:13:52.843Z,100321.88
2022-09-10T22:16:20.704Z,100329.19
2022-09-10T22:18:47.192Z,100322.13
2022-09-10T22:21:14.859Z,100326.38
2022-09-10T22:23:41.464Z,100334.19
2022-09-10T22:26:10.560Z,100332.56
2022-09-10T22:28:38.439Z,100336.31
2022-09-10T22:31:13.323Z,100332.94
2022-09-10T22:33:42.008Z,100332.66
2022-09-10T22:36:18.621Z,100335.28
2022-09-10T22:38:53.867Z,100333.59
2022-09-10T22:41:21.391Z,100334.44
2022-09-10T22:43:47.775Z,100332.94
2022-09-10T22:46:14.540Z,100339.53
2022-09-10T22:48:43.309Z,100341.59
2022-09-10T22:51:12.070Z,100334.44
2022-09-10T22:53:40.282Z,100356.50
2022-09-10T22:56:07.051Z,100338.38
2022-09-10T22:58:33.687Z,100335.09
2022-09-10T23:01:08.882Z,100335.66
2022-09-10T23:03:35.642Z,100335.88
2022-09-10T23:06:08.766Z,100340.50
2022-09-10T23:08:36.410Z,100345.94
2022-09-10T23:11:17.781Z,100349.03
2022-09-10T23:13:47.630Z,100348.25
2022-09-10T23:16:15.945Z,100349.03
2022-09-10T23:18:43.953Z,100346.53
2022-09-10T23:21:10.428Z,100355.22
2022-09-10T23:23:36.907Z,100349.03
2022-09-10T23:26:08.975Z,100357.84
2022-09-10T23:28:36.420Z,100354.28
2022-09-10T23:31:18.352Z,100356.91
2022-09-10T23:33:48.260Z,100353.53
2022-09-10T23:36:15.169Z,100362.41
2022-09-10T23:38:43.731Z,100362.91
2022-09-10T23:41:12.065Z,100357.75
2022-09-10T23:43:39.664Z,100360.84
2022-09-10T23:46:07.692Z,100359.91
2022-09-10T23:48:35.228Z,100359.72
2022-09-10T23:51:02.409Z,100363.28
2022-09-10T23:53:29.040Z,100361.97
2022-09-10T23:55:56.248Z,100363.38
2022-09-10T23:58:23.247Z,100366.09
